Watertown Municipal, SD

2:50 AM CDT on August 21, 2014 (GMT -0500)
Ortonville Municipal-Martinson | Change Station
CLOSE
Current Station
Airport
Location: Ortonville,
Elevation: 1099 ft
Nearby Weather Stations

Elev 1099 ft 45.31 °N, 96.42 °W | Updated 17 minutes ago

Light Rain
Light Rain
70 °F
Feels Like 70 °F
N
17
Wind Variable Wind from East
Gusts 26 mph

Today
High -- | Low -- °F
--% Chance of Precip.
Yesterday
High -- | Low -- °F
Precip. -- in
6:37 AM 8:24 PM
Waning Crescent, 16% visible
Pressure 29.71 in
Visibility 10.0 miles
Clouds Scattered Clouds 1700 ft
Scattered Clouds 2300 ft
Overcast 4300 ft
Dew Point 66 °F
Humidity 88%
Rainfall 0.77 in
Snow Depth Not available.
UV 0 out of 12
Pollen 9.90 out of 12
Air Quality Not available.
Flu Activity Not available.
METAR KVVV 210733Z AUTO 09015G23KT 10SM -RA SCT017 SCT023 OVC043 21/19 A2971 RMK AO2 P0020 LTG DSNT W THRU E

More Conditions Fewer Conditions

Pressure 29.71 in
Visibility 10.0 miles
Clouds Scattered Clouds 1700 ft
Scattered Clouds 2300 ft
Overcast 4300 ft
Dew Point 66 °F
Humidity 88%
Rainfall 0.77 in
Snow Depth Not available.
UV 0 out of 12
Pollen 9.90 out of 12
Air Quality Not available.
Flu Activity Not available.
METAR KVVV 210733Z AUTO 09015G23KT 10SM -RA SCT017 SCT023 OVC043 21/19 A2971 RMK AO2 P0020 LTG DSNT W THRU E

More Conditions Fewer Conditions

10-Day Weather Forecast

Almanac

Astronomy

Aug. 21, 2014 Rise Set
Actual Time 6:37 AM CDT 8:24 PM CDT
Civil Twilight 6:06 AM CDT 8:56 PM CDT
Nautical Twilight 5:28 AM CDT 9:33 PM CDT
Astronomical Twilight 4:46 AM CDT 10:15 PM CDT
Moon 3:04 AM CDT 5:58 PM CDT
Length of Visible Light 14h 49m
Length of Day
13h 47m
Tomorrow will be 2m 53s shorter.
Waning Crescent, 16% of the Moon is Illuminated
Today
Waning Crescent
Aug 25
New
Sep 2
First Quarter
Sep 8
Full
Sep 15
Last Quarter

Today's Extremes

State Highs State Lows

Community

WunderPhotos

Upload Photos

1,745,858 photos uploaded!

Nearby

Snow Depth

Station Depth Elevation
Blind Park 0 in 6890 ft

Earthquake Activity

City Distance Mag. Time & Date
No recent earthquake activity has been reported nearby.
Minimum magnitude displayed is 2.5.

Coastal Water Temperatures

Place Temperature
No Stations Reporting

Nearby Weather Stations